Coleman, Canada
Current Conditions -  °F | °C
As of 9:00 AM on Sunday 21 Dec 2014 (Local Time) from CWSW Reporting Station
Light Rain Light Rain  
Wind Chill: 30°   Ceiling: 2500
Heat Index: 36°   Visibility: 12mi
Dew Point: 32°   Wind: 7mph
Humidity: 87%   Direction: 160°SSE
Pressure: 29.36"   Gusts: NA
Location:  49.64°N, 114.5°W
Report Text: CWSW 211600Z 16006KT 120V190 12SM -RA FEW010 OVC025 02/00 A2936 RMK ST2SC6 SLP969
Loading
Personal Weather Stations






























Interactive Weather Map New forecast layout! Learn more

10-Day Weather Forecast

Advertisements
Track Severe Weather on mobile